sensor_id;sensor_type;location;lat;lon;timestamp;P1;durP1;ratioP1;P2;durP2;ratioP2
17171;SDS011;8701;50.150;8.756;2023-06-10T00:01:12;8.77;;;7.30;;
17171;SDS011;8701;50.150;8.756;2023-06-10T00:05:15;7.20;;;6.50;;
17171;SDS011;8701;50.150;8.756;2023-06-10T00:09:19;8.20;;;7.07;;
17171;SDS011;8701;50.150;8.756;2023-06-10T00:13:24;8.83;;;6.67;;
17171;SDS011;8701;50.150;8.756;2023-06-10T00:17:27;10.40;;;7.57;;
17171;SDS011;8701;50.150;8.756;2023-06-10T00:21:30;8.93;;;7.57;;
17171;SDS011;8701;50.150;8.756;2023-06-10T00:25:37;7.40;;;6.70;;
17171;SDS011;8701;50.150;8.756;2023-06-10T00:29:41;12.20;;;7.07;;
17171;SDS011;8701;50.150;8.756;2023-06-10T00:33:43;9.03;;;7.27;;
17171;SDS011;8701;50.150;8.756;2023-06-10T00:37:46;8.53;;;7.00;;
17171;SDS011;8701;50.150;8.756;2023-06-10T00:41:49;9.43;;;6.73;;
17171;SDS011;8701;50.150;8.756;2023-06-10T00:45:53;9.07;;;7.30;;
17171;SDS011;8701;50.150;8.756;2023-06-10T00:49:57;7.23;;;6.53;;
17171;SDS011;8701;50.150;8.756;2023-06-10T00:54:00;9.23;;;7.50;;
17171;SDS011;8701;50.150;8.756;2023-06-10T00:58:02;7.80;;;7.00;;
17171;SDS011;8701;50.150;8.756;2023-06-10T01:02:07;12.87;;;7.80;;
17171;SDS011;8701;50.150;8.756;2023-06-10T01:06:13;8.20;;;7.30;;
17171;SDS011;8701;50.150;8.756;2023-06-10T01:10:27;8.37;;;7.57;;
17171;SDS011;8701;50.150;8.756;2023-06-10T01:14:33;12.10;;;7.60;;
17171;SDS011;8701;50.150;8.756;2023-06-10T01:18:37;11.43;;;8.13;;
17171;SDS011;8701;50.150;8.756;2023-06-10T01:22:41;9.87;;;7.33;;
17171;SDS011;8701;50.150;8.756;2023-06-10T01:26:43;9.47;;;7.10;;
17171;SDS011;8701;50.150;8.756;2023-06-10T01:30:48;8.37;;;6.93;;
17171;SDS011;8701;50.150;8.756;2023-06-10T01:34:57;7.63;;;6.90;;
17171;SDS011;8701;50.150;8.756;2023-06-10T01:39:02;10.50;;;7.37;;
17171;SDS011;8701;50.150;8.756;2023-06-10T01:43:06;10.17;;;6.70;;
17171;SDS011;8701;50.150;8.756;2023-06-10T01:47:08;11.73;;;7.20;;
17171;SDS011;8701;50.150;8.756;2023-06-10T01:51:10;12.07;;;7.10;;
17171;SDS011;8701;50.150;8.756;2023-06-10T01:55:14;8.47;;;6.93;;
17171;SDS011;8701;50.150;8.756;2023-06-10T01:59:16;10.07;;;6.30;;
17171;SDS011;8701;50.150;8.756;2023-06-10T02:03:19;9.70;;;6.63;;
17171;SDS011;8701;50.150;8.756;2023-06-10T02:07:21;12.03;;;6.57;;
17171;SDS011;8701;50.150;8.756;2023-06-10T02:11:24;7.40;;;6.70;;
17171;SDS011;8701;50.150;8.756;2023-06-10T02:15:27;8.33;;;7.20;;
17171;SDS011;8701;50.150;8.756;2023-06-10T02:19:30;10.30;;;7.20;;
17171;SDS011;8701;50.150;8.756;2023-06-10T02:23:32;8.30;;;6.33;;
17171;SDS011;8701;50.150;8.756;2023-06-10T02:27:35;7.50;;;6.30;;
17171;SDS011;8701;50.150;8.756;2023-06-10T02:31:37;8.07;;;6.80;;
17171;SDS011;8701;50.150;8.756;2023-06-10T02:35:40;8.30;;;7.30;;
17171;SDS011;8701;50.150;8.756;2023-06-10T02:39:43;7.50;;;6.80;;
17171;SDS011;8701;50.150;8.756;2023-06-10T02:43:47;12.17;;;6.77;;
17171;SDS011;8701;50.150;8.756;2023-06-10T02:47:50;7.60;;;6.33;;
17171;SDS011;8701;50.150;8.756;2023-06-10T02:51:53;6.43;;;5.63;;
17171;SDS011;8701;50.150;8.756;2023-06-10T02:55:57;8.80;;;6.70;;
17171;SDS011;8701;50.150;8.756;2023-06-10T03:00:02;9.27;;;7.20;;
17171;SDS011;8701;50.150;8.756;2023-06-10T03:04:10;9.10;;;6.47;;
17171;SDS011;8701;50.150;8.756;2023-06-10T03:08:15;9.70;;;7.23;;
17171;SDS011;8701;50.150;8.756;2023-06-10T03:12:19;8.63;;;6.27;;
17171;SDS011;8701;50.150;8.756;2023-06-10T03:16:24;8.60;;;6.93;;
17171;SDS011;8701;50.150;8.756;2023-06-10T03:20:28;8.37;;;6.47;;
17171;SDS011;8701;50.150;8.756;2023-06-10T03:24:31;13.93;;;7.37;;
17171;SDS011;8701;50.150;8.756;2023-06-10T03:28:33;11.70;;;7.33;;
17171;SDS011;8701;50.150;8.756;2023-06-10T03:32:38;8.77;;;7.20;;
17171;SDS011;8701;50.150;8.756;2023-06-10T03:36:42;8.90;;;6.87;;
17171;SDS011;8701;50.150;8.756;2023-06-10T03:40:45;8.57;;;6.47;;
17171;SDS011;8701;50.150;8.756;2023-06-10T03:44:47;8.33;;;6.43;;
17171;SDS011;8701;50.150;8.756;2023-06-10T03:48:51;10.07;;;6.10;;
17171;SDS011;8701;50.150;8.756;2023-06-10T03:52:54;7.97;;;7.17;;
17171;SDS011;8701;50.150;8.756;2023-06-10T03:57:00;7.83;;;6.20;;
17171;SDS011;8701;50.150;8.756;2023-06-10T04:05:20;7.30;;;5.77;;
17171;SDS011;8701;50.150;8.756;2023-06-10T04:09:23;7.17;;;6.47;;
17171;SDS011;8701;50.150;8.756;2023-06-10T04:13:26;7.30;;;6.20;;
17171;SDS011;8701;50.150;8.756;2023-06-10T04:17:31;9.00;;;6.80;;
17171;SDS011;8701;50.150;8.756;2023-06-10T04:21:35;7.30;;;5.70;;
17171;SDS011;8701;50.150;8.756;2023-06-10T04:25:37;6.50;;;5.90;;
17171;SDS011;8701;50.150;8.756;2023-06-10T04:29:40;7.00;;;6.27;;
17171;SDS011;8701;50.150;8.756;2023-06-10T04:33:42;9.37;;;6.07;;
17171;SDS011;8701;50.150;8.756;2023-06-10T04:37:46;7.13;;;5.77;;
17171;SDS011;8701;50.150;8.756;2023-06-10T04:41:50;7.33;;;6.47;;
17171;SDS011;8701;50.150;8.756;2023-06-10T04:45:52;7.30;;;6.37;;
17171;SDS011;8701;50.150;8.756;2023-06-10T04:49:55;6.50;;;5.90;;
17171;SDS011;8701;50.150;8.756;2023-06-10T04:53:58;8.50;;;6.10;;
17171;SDS011;8701;50.150;8.756;2023-06-10T04:58:03;8.10;;;5.83;;
17171;SDS011;8701;50.150;8.756;2023-06-10T05:02:05;6.63;;;5.93;;
17171;SDS011;8701;50.150;8.756;2023-06-10T05:06:07;9.17;;;6.10;;
17171;SDS011;8701;50.150;8.756;2023-06-10T05:10:11;8.33;;;6.23;;
17171;SDS011;8701;50.150;8.756;2023-06-10T05:14:14;6.77;;;6.17;;
17171;SDS011;8701;50.150;8.756;2023-06-10T05:18:17;5.47;;;4.97;;
17171;SDS011;8701;50.150;8.756;2023-06-10T05:22:19;7.53;;;6.10;;
17171;SDS011;8701;50.150;8.756;2023-06-10T05:26:25;6.87;;;5.47;;
17171;SDS011;8701;50.150;8.756;2023-06-10T05:30:29;8.23;;;5.60;;
17171;SDS011;8701;50.150;8.756;2023-06-10T05:34:31;11.73;;;6.20;;
17171;SDS011;8701;50.150;8.756;2023-06-10T05:38:34;6.73;;;6.03;;
17171;SDS011;8701;50.150;8.756;2023-06-10T05:42:37;6.27;;;5.67;;
17171;SDS011;8701;50.150;8.756;2023-06-10T05:46:39;6.43;;;5.20;;
17171;SDS011;8701;50.150;8.756;2023-06-10T05:50:42;9.00;;;6.37;;
17171;SDS011;8701;50.150;8.756;2023-06-10T05:54:48;11.60;;;5.43;;
17171;SDS011;8701;50.150;8.756;2023-06-10T05:58:52;6.70;;;5.63;;
17171;SDS011;8701;50.150;8.756;2023-06-10T06:02:55;8.23;;;6.13;;
17171;SDS011;8701;50.150;8.756;2023-06-10T06:06:58;6.40;;;5.47;;
17171;SDS011;8701;50.150;8.756;2023-06-10T06:11:00;6.07;;;5.23;;
17171;SDS011;8701;50.150;8.756;2023-06-10T06:15:04;6.43;;;5.20;;
17171;SDS011;8701;50.150;8.756;2023-06-10T06:19:08;7.70;;;6.00;;
17171;SDS011;8701;50.150;8.756;2023-06-10T06:23:11;13.37;;;6.10;;
17171;SDS011;8701;50.150;8.756;2023-06-10T06:27:14;6.30;;;5.70;;
17171;SDS011;8701;50.150;8.756;2023-06-10T06:31:17;5.70;;;5.20;;
17171;SDS011;8701;50.150;8.756;2023-06-10T06:35:20;12.97;;;5.20;;
17171;SDS011;8701;50.150;8.756;2023-06-10T06:39:22;11.07;;;5.77;;
17171;SDS011;8701;50.150;8.756;2023-06-10T06:43:24;7.20;;;5.20;;
17171;SDS011;8701;50.150;8.756;2023-06-10T06:47:38;5.80;;;5.00;;
17171;SDS011;8701;50.150;8.756;2023-06-10T06:51:40;6.00;;;5.23;;
17171;SDS011;8701;50.150;8.756;2023-06-10T06:55:42;5.37;;;4.87;;
17171;SDS011;8701;50.150;8.756;2023-06-10T06:59:45;9.13;;;5.40;;
17171;SDS011;8701;50.150;8.756;2023-06-10T07:03:48;7.27;;;5.33;;
17171;SDS011;8701;50.150;8.756;2023-06-10T07:07:50;7.00;;;5.20;;
17171;SDS011;8701;50.150;8.756;2023-06-10T07:11:55;7.97;;;5.00;;
17171;SDS011;8701;50.150;8.756;2023-06-10T07:15:57;5.93;;;5.37;;
17171;SDS011;8701;50.150;8.756;2023-06-10T07:20:01;5.60;;;5.00;;
17171;SDS011;8701;50.150;8.756;2023-06-10T07:24:03;5.90;;;5.00;;
17171;SDS011;8701;50.150;8.756;2023-06-10T07:28:06;7.40;;;5.23;;
17171;SDS011;8701;50.150;8.756;2023-06-10T07:32:08;7.03;;;4.87;;
17171;SDS011;8701;50.150;8.756;2023-06-10T07:36:12;6.93;;;4.80;;
17171;SDS011;8701;50.150;8.756;2023-06-10T07:40:14;5.80;;;5.30;;
17171;SDS011;8701;50.150;8.756;2023-06-10T07:44:16;5.20;;;4.70;;
17171;SDS011;8701;50.150;8.756;2023-06-10T07:48:19;5.03;;;4.57;;
17171;SDS011;8701;50.150;8.756;2023-06-10T07:52:22;5.00;;;4.50;;
17171;SDS011;8701;50.150;8.756;2023-06-10T07:56:24;4.80;;;4.20;;
17171;SDS011;8701;50.150;8.756;2023-06-10T08:00:27;4.70;;;4.30;;
17171;SDS011;8701;50.150;8.756;2023-06-10T08:04:29;4.30;;;3.87;;
17171;SDS011;8701;50.150;8.756;2023-06-10T08:08:33;5.73;;;4.10;;
17171;SDS011;8701;50.150;8.756;2023-06-10T08:12:40;5.10;;;4.27;;
17171;SDS011;8701;50.150;8.756;2023-06-10T08:16:43;5.07;;;4.20;;
17171;SDS011;8701;50.150;8.756;2023-06-10T08:20:45;5.07;;;4.57;;
17171;SDS011;8701;50.150;8.756;2023-06-10T08:24:49;3.97;;;3.77;;
17171;SDS011;8701;50.150;8.756;2023-06-10T08:28:51;3.70;;;3.40;;
17171;SDS011;8701;50.150;8.756;2023-06-10T08:32:54;4.10;;;3.70;;
17171;SDS011;8701;50.150;8.756;2023-06-10T08:36:56;4.33;;;3.90;;
17171;SDS011;8701;50.150;8.756;2023-06-10T08:41:00;3.40;;;3.20;;
17171;SDS011;8701;50.150;8.756;2023-06-10T08:45:03;3.60;;;3.30;;
17171;SDS011;8701;50.150;8.756;2023-06-10T08:49:06;4.30;;;3.90;;
17171;SDS011;8701;50.150;8.756;2023-06-10T08:53:09;4.10;;;3.80;;
17171;SDS011;8701;50.150;8.756;2023-06-10T08:57:17;5.53;;;3.60;;
17171;SDS011;8701;50.150;8.756;2023-06-10T09:01:22;5.20;;;3.90;;
17171;SDS011;8701;50.150;8.756;2023-06-10T09:05:26;3.43;;;3.23;;
17171;SDS011;8701;50.150;8.756;2023-06-10T09:09:29;10.70;;;3.23;;
17171;SDS011;8701;50.150;8.756;2023-06-10T09:13:34;4.10;;;3.67;;
17171;SDS011;8701;50.150;8.756;2023-06-10T09:17:36;4.30;;;3.30;;
17171;SDS011;8701;50.150;8.756;2023-06-10T09:21:39;3.90;;;3.50;;
17171;SDS011;8701;50.150;8.756;2023-06-10T09:25:41;3.40;;;3.10;;
17171;SDS011;8701;50.150;8.756;2023-06-10T09:29:48;4.23;;;3.00;;
17171;SDS011;8701;50.150;8.756;2023-06-10T09:33:53;3.20;;;3.00;;
17171;SDS011;8701;50.150;8.756;2023-06-10T09:37:56;3.57;;;3.27;;
17171;SDS011;8701;50.150;8.756;2023-06-10T09:41:59;3.60;;;3.37;;
17171;SDS011;8701;50.150;8.756;2023-06-10T09:46:03;3.20;;;3.00;;
17171;SDS011;8701;50.150;8.756;2023-06-10T09:50:05;3.57;;;3.27;;
17171;SDS011;8701;50.150;8.756;2023-06-10T09:54:07;4.03;;;2.80;;
17171;SDS011;8701;50.150;8.756;2023-06-10T09:58:10;3.20;;;3.00;;
17171;SDS011;8701;50.150;8.756;2023-06-10T10:02:14;3.23;;;2.87;;
17171;SDS011;8701;50.150;8.756;2023-06-10T10:06:17;3.60;;;3.30;;
17171;SDS011;8701;50.150;8.756;2023-06-10T10:10:20;2.93;;;2.83;;
17171;SDS011;8701;50.150;8.756;2023-06-10T10:14:23;3.63;;;3.33;;
17171;SDS011;8701;50.150;8.756;2023-06-10T10:18:28;2.90;;;2.70;;
17171;SDS011;8701;50.150;8.756;2023-06-10T10:22:33;4.37;;;2.90;;
17171;SDS011;8701;50.150;8.756;2023-06-10T10:26:39;2.73;;;2.53;;
17171;SDS011;8701;50.150;8.756;2023-06-10T10:30:42;3.27;;;3.07;;
17171;SDS011;8701;50.150;8.756;2023-06-10T10:34:51;3.10;;;2.90;;
17171;SDS011;8701;50.150;8.756;2023-06-10T10:38:59;3.03;;;2.83;;
17171;SDS011;8701;50.150;8.756;2023-06-10T10:43:03;4.07;;;3.77;;
17171;SDS011;8701;50.150;8.756;2023-06-10T10:47:08;5.27;;;3.60;;
17171;SDS011;8701;50.150;8.756;2023-06-10T10:51:12;3.70;;;3.50;;
17171;SDS011;8701;50.150;8.756;2023-06-10T10:55:17;6.27;;;3.60;;
17171;SDS011;8701;50.150;8.756;2023-06-10T10:59:24;4.37;;;3.60;;
17171;SDS011;8701;50.150;8.756;2023-06-10T11:03:28;3.93;;;3.10;;
17171;SDS011;8701;50.150;8.756;2023-06-10T11:07:33;3.57;;;3.37;;
17171;SDS011;8701;50.150;8.756;2023-06-10T11:11:36;4.37;;;3.30;;
17171;SDS011;8701;50.150;8.756;2023-06-10T11:15:51;4.30;;;3.00;;
17171;SDS011;8701;50.150;8.756;2023-06-10T11:19:58;3.00;;;2.80;;
17171;SDS011;8701;50.150;8.756;2023-06-10T11:24:09;3.50;;;3.20;;
17171;SDS011;8701;50.150;8.756;2023-06-10T11:28:17;3.57;;;3.27;;
17171;SDS011;8701;50.150;8.756;2023-06-10T11:32:19;3.27;;;3.07;;
17171;SDS011;8701;50.150;8.756;2023-06-10T11:36:22;3.60;;;3.30;;
17171;SDS011;8701;50.150;8.756;2023-06-10T11:40:26;3.50;;;3.20;;
17171;SDS011;8701;50.150;8.756;2023-06-10T11:44:30;3.30;;;3.10;;
17171;SDS011;8701;50.150;8.756;2023-06-10T11:48:34;7.20;;;4.20;;
17171;SDS011;8701;50.150;8.756;2023-06-10T11:52:36;5.73;;;3.97;;
17171;SDS011;8701;50.150;8.756;2023-06-10T11:56:43;9.00;;;3.30;;
17171;SDS011;8701;50.150;8.756;2023-06-10T12:00:46;3.67;;;3.37;;
17171;SDS011;8701;50.150;8.756;2023-06-10T12:04:48;4.00;;;3.70;;
17171;SDS011;8701;50.150;8.756;2023-06-10T12:08:51;4.67;;;3.70;;
17171;SDS011;8701;50.150;8.756;2023-06-10T12:12:54;4.63;;;3.23;;
17171;SDS011;8701;50.150;8.756;2023-06-10T12:16:56;4.17;;;3.60;;
17171;SDS011;8701;50.150;8.756;2023-06-10T12:20:59;4.70;;;3.37;;
17171;SDS011;8701;50.150;8.756;2023-06-10T12:25:05;4.13;;;3.80;;
17171;SDS011;8701;50.150;8.756;2023-06-10T12:29:22;4.10;;;3.70;;
17171;SDS011;8701;50.150;8.756;2023-06-10T12:33:26;3.50;;;3.20;;
17171;SDS011;8701;50.150;8.756;2023-06-10T12:37:28;4.30;;;4.00;;
17171;SDS011;8701;50.150;8.756;2023-06-10T12:41:36;3.50;;;3.20;;
17171;SDS011;8701;50.150;8.756;2023-06-10T12:45:41;3.87;;;3.57;;
17171;SDS011;8701;50.150;8.756;2023-06-10T12:49:45;4.40;;;3.60;;
17171;SDS011;8701;50.150;8.756;2023-06-10T12:53:47;3.43;;;3.10;;
17171;SDS011;8701;50.150;8.756;2023-06-10T12:57:50;6.67;;;3.03;;
17171;SDS011;8701;50.150;8.756;2023-06-10T13:01:53;3.80;;;3.50;;
17171;SDS011;8701;50.150;8.756;2023-06-10T13:05:56;3.30;;;3.00;;
17171;SDS011;8701;50.150;8.756;2023-06-10T13:09:58;5.00;;;3.90;;
17171;SDS011;8701;50.150;8.756;2023-06-10T13:14:01;3.70;;;3.40;;
17171;SDS011;8701;50.150;8.756;2023-06-10T13:18:06;4.03;;;3.37;;
17171;SDS011;8701;50.150;8.756;2023-06-10T13:22:08;6.13;;;3.37;;
17171;SDS011;8701;50.150;8.756;2023-06-10T13:26:10;3.77;;;3.10;;
17171;SDS011;8701;50.150;8.756;2023-06-10T13:30:12;3.80;;;3.30;;
17171;SDS011;8701;50.150;8.756;2023-06-10T13:34:16;3.40;;;3.10;;
17171;SDS011;8701;50.150;8.756;2023-06-10T13:38:18;4.67;;;3.80;;
17171;SDS011;8701;50.150;8.756;2023-06-10T13:42:21;3.50;;;3.20;;
17171;SDS011;8701;50.150;8.756;2023-06-10T13:46:23;3.70;;;3.40;;
17171;SDS011;8701;50.150;8.756;2023-06-10T13:50:28;3.47;;;3.27;;
17171;SDS011;8701;50.150;8.756;2023-06-10T13:54:30;3.80;;;3.50;;
17171;SDS011;8701;50.150;8.756;2023-06-10T13:58:32;3.10;;;2.90;;
17171;SDS011;8701;50.150;8.756;2023-06-10T14:02:39;3.87;;;3.33;;
17171;SDS011;8701;50.150;8.756;2023-06-10T14:06:42;4.07;;;3.77;;
17171;SDS011;8701;50.150;8.756;2023-06-10T14:10:46;3.47;;;3.17;;
17171;SDS011;8701;50.150;8.756;2023-06-10T14:14:48;3.17;;;2.97;;
17171;SDS011;8701;50.150;8.756;2023-06-10T14:18:50;3.23;;;2.73;;
17171;SDS011;8701;50.150;8.756;2023-06-10T14:22:54;3.87;;;3.33;;
17171;SDS011;8701;50.150;8.756;2023-06-10T14:26:56;5.20;;;3.40;;
17171;SDS011;8701;50.150;8.756;2023-06-10T14:30:58;4.47;;;3.00;;
17171;SDS011;8701;50.150;8.756;2023-06-10T14:35:01;3.57;;;3.30;;
17171;SDS011;8701;50.150;8.756;2023-06-10T14:39:04;3.07;;;2.87;;
17171;SDS011;8701;50.150;8.756;2023-06-10T14:43:07;3.53;;;2.80;;
17171;SDS011;8701;50.150;8.756;2023-06-10T14:47:10;4.80;;;3.50;;
17171;SDS011;8701;50.150;8.756;2023-06-10T14:51:12;5.07;;;3.17;;
17171;SDS011;8701;50.150;8.756;2023-06-10T14:55:16;3.43;;;2.90;;
17171;SDS011;8701;50.150;8.756;2023-06-10T14:59:18;3.80;;;3.50;;
17171;SDS011;8701;50.150;8.756;2023-06-10T15:03:20;3.37;;;3.17;;
17171;SDS011;8701;50.150;8.756;2023-06-10T15:07:22;5.67;;;3.50;;
17171;SDS011;8701;50.150;8.756;2023-06-10T15:11:26;3.40;;;3.07;;
17171;SDS011;8701;50.150;8.756;2023-06-10T15:15:28;6.60;;;2.80;;
17171;SDS011;8701;50.150;8.756;2023-06-10T15:19:31;3.50;;;3.20;;
17171;SDS011;8701;50.150;8.756;2023-06-10T15:23:33;3.30;;;3.00;;
17171;SDS011;8701;50.150;8.756;2023-06-10T15:27:37;3.23;;;2.93;;
17171;SDS011;8701;50.150;8.756;2023-06-10T15:31:39;3.17;;;2.97;;
17171;SDS011;8701;50.150;8.756;2023-06-10T15:35:41;3.53;;;3.20;;
17171;SDS011;8701;50.150;8.756;2023-06-10T15:39:44;2.90;;;2.70;;
17171;SDS011;8701;50.150;8.756;2023-06-10T15:43:47;4.03;;;3.50;;
17171;SDS011;8701;50.150;8.756;2023-06-10T15:47:49;3.47;;;3.17;;
17171;SDS011;8701;50.150;8.756;2023-06-10T15:51:52;3.70;;;3.27;;
17171;SDS011;8701;50.150;8.756;2023-06-10T15:55:54;4.10;;;3.43;;
17171;SDS011;8701;50.150;8.756;2023-06-10T15:59:57;3.13;;;2.93;;
17171;SDS011;8701;50.150;8.756;2023-06-10T16:03:59;5.73;;;3.17;;
17171;SDS011;8701;50.150;8.756;2023-06-10T16:08:02;4.00;;;3.33;;
17171;SDS011;8701;50.150;8.756;2023-06-10T16:12:04;3.60;;;3.30;;
17171;SDS011;8701;50.150;8.756;2023-06-10T16:16:09;6.30;;;3.20;;
17171;SDS011;8701;50.150;8.756;2023-06-10T16:20:11;4.60;;;3.50;;
17171;SDS011;8701;50.150;8.756;2023-06-10T16:24:13;4.20;;;3.30;;
17171;SDS011;8701;50.150;8.756;2023-06-10T16:28:16;4.50;;;3.70;;
17171;SDS011;8701;50.150;8.756;2023-06-10T16:32:19;4.10;;;3.70;;
17171;SDS011;8701;50.150;8.756;2023-06-10T16:36:22;3.73;;;3.40;;
17171;SDS011;8701;50.150;8.756;2023-06-10T16:40:24;6.90;;;3.30;;
17171;SDS011;8701;50.150;8.756;2023-06-10T16:44:27;11.90;;;4.00;;
17171;SDS011;8701;50.150;8.756;2023-06-10T16:48:30;4.50;;;3.77;;
17171;SDS011;8701;50.150;8.756;2023-06-10T16:52:32;4.83;;;4.07;;
17171;SDS011;8701;50.150;8.756;2023-06-10T16:56:34;7.40;;;4.10;;
17171;SDS011;8701;50.150;8.756;2023-06-10T17:00:37;4.30;;;3.87;;
17171;SDS011;8701;50.150;8.756;2023-06-10T17:04:40;4.43;;;4.03;;
17171;SDS011;8701;50.150;8.756;2023-06-10T17:08:43;5.83;;;4.17;;
17171;SDS011;8701;50.150;8.756;2023-06-10T17:12:45;5.10;;;4.10;;
17171;SDS011;8701;50.150;8.756;2023-06-10T17:16:47;4.07;;;3.77;;
17171;SDS011;8701;50.150;8.756;2023-06-10T17:20:51;4.70;;;4.30;;
17171;SDS011;8701;50.150;8.756;2023-06-10T17:24:53;6.10;;;4.53;;
17171;SDS011;8701;50.150;8.756;2023-06-10T17:28:55;6.30;;;4.40;;
17171;SDS011;8701;50.150;8.756;2023-06-10T17:32:58;5.13;;;4.40;;
17171;SDS011;8701;50.150;8.756;2023-06-10T17:37:01;7.00;;;5.10;;
17171;SDS011;8701;50.150;8.756;2023-06-10T17:41:04;12.90;;;5.50;;
17171;SDS011;8701;50.150;8.756;2023-06-10T17:45:08;8.00;;;4.47;;
17171;SDS011;8701;50.150;8.756;2023-06-10T17:49:10;5.63;;;5.00;;
17171;SDS011;8701;50.150;8.756;2023-06-10T17:53:14;5.50;;;4.80;;
17171;SDS011;8701;50.150;8.756;2023-06-10T17:57:16;5.53;;;5.00;;
17171;SDS011;8701;50.150;8.756;2023-06-10T18:01:18;5.03;;;4.53;;
17171;SDS011;8701;50.150;8.756;2023-06-10T18:05:21;5.70;;;5.10;;
17171;SDS011;8701;50.150;8.756;2023-06-10T18:09:24;5.93;;;5.07;;
17171;SDS011;8701;50.150;8.756;2023-06-10T18:13:26;5.83;;;4.67;;
17171;SDS011;8701;50.150;8.756;2023-06-10T18:17:28;6.30;;;4.57;;
17171;SDS011;8701;50.150;8.756;2023-06-10T18:21:31;5.80;;;4.90;;
17171;SDS011;8701;50.150;8.756;2023-06-10T18:25:34;5.63;;;5.13;;
17171;SDS011;8701;50.150;8.756;2023-06-10T18:29:37;5.80;;;5.20;;
17171;SDS011;8701;50.150;8.756;2023-06-10T18:33:39;5.60;;;4.80;;
17171;SDS011;8701;50.150;8.756;2023-06-10T18:37:41;6.03;;;5.30;;
17171;SDS011;8701;50.150;8.756;2023-06-10T18:41:45;15.07;;;4.87;;
17171;SDS011;8701;50.150;8.756;2023-06-10T18:45:47;5.63;;;5.13;;
17171;SDS011;8701;50.150;8.756;2023-06-10T18:49:49;6.17;;;5.20;;
17171;SDS011;8701;50.150;8.756;2023-06-10T18:53:51;6.27;;;5.43;;
17171;SDS011;8701;50.150;8.756;2023-06-10T18:57:55;4.90;;;4.50;;
17171;SDS011;8701;50.150;8.756;2023-06-10T19:01:57;4.87;;;4.30;;
17171;SDS011;8701;50.150;8.756;2023-06-10T19:05:59;6.50;;;5.07;;
17171;SDS011;8701;50.150;8.756;2023-06-10T19:10:02;5.70;;;5.20;;
17171;SDS011;8701;50.150;8.756;2023-06-10T19:14:06;6.47;;;5.10;;
17171;SDS011;8701;50.150;8.756;2023-06-10T19:18:08;6.37;;;4.40;;
17171;SDS011;8701;50.150;8.756;2023-06-10T19:22:10;5.80;;;4.70;;
17171;SDS011;8701;50.150;8.756;2023-06-10T19:26:13;4.67;;;4.27;;
17171;SDS011;8701;50.150;8.756;2023-06-10T19:30:16;5.67;;;4.73;;
17171;SDS011;8701;50.150;8.756;2023-06-10T19:34:19;5.50;;;5.00;;
17171;SDS011;8701;50.150;8.756;2023-06-10T19:38:21;5.70;;;4.50;;
17171;SDS011;8701;50.150;8.756;2023-06-10T19:42:23;6.43;;;4.60;;
17171;SDS011;8701;50.150;8.756;2023-06-10T19:46:26;5.97;;;4.97;;
17171;SDS011;8701;50.150;8.756;2023-06-10T19:50:29;5.47;;;4.63;;
17171;SDS011;8701;50.150;8.756;2023-06-10T19:54:31;5.30;;;4.40;;
17171;SDS011;8701;50.150;8.756;2023-06-10T19:58:34;5.83;;;5.33;;
17171;SDS011;8701;50.150;8.756;2023-06-10T20:02:38;6.37;;;5.30;;
17171;SDS011;8701;50.150;8.756;2023-06-10T20:06:40;5.60;;;5.03;;
17171;SDS011;8701;50.150;8.756;2023-06-10T20:10:42;6.40;;;5.43;;
17171;SDS011;8701;50.150;8.756;2023-06-10T20:14:45;5.23;;;4.73;;
17171;SDS011;8701;50.150;8.756;2023-06-10T20:18:50;8.73;;;5.50;;
17171;SDS011;8701;50.150;8.756;2023-06-10T20:22:53;6.47;;;5.40;;
17171;SDS011;8701;50.150;8.756;2023-06-10T20:26:56;7.30;;;5.50;;
17171;SDS011;8701;50.150;8.756;2023-06-10T20:31:00;5.40;;;4.90;;
17171;SDS011;8701;50.150;8.756;2023-06-10T20:35:04;9.27;;;5.30;;
17171;SDS011;8701;50.150;8.756;2023-06-10T20:39:07;6.40;;;5.10;;
17171;SDS011;8701;50.150;8.756;2023-06-10T20:43:09;6.53;;;5.30;;
17171;SDS011;8701;50.150;8.756;2023-06-10T20:47:12;4.97;;;4.50;;
17171;SDS011;8701;50.150;8.756;2023-06-10T20:51:15;5.67;;;5.10;;
17171;SDS011;8701;50.150;8.756;2023-06-10T20:55:17;6.07;;;5.57;;
17171;SDS011;8701;50.150;8.756;2023-06-10T20:59:20;7.53;;;5.70;;
17171;SDS011;8701;50.150;8.756;2023-06-10T21:03:22;5.80;;;5.30;;
17171;SDS011;8701;50.150;8.756;2023-06-10T21:07:26;5.63;;;5.03;;
17171;SDS011;8701;50.150;8.756;2023-06-10T21:11:28;5.60;;;5.10;;
17171;SDS011;8701;50.150;8.756;2023-06-10T21:15:30;4.90;;;4.50;;
17171;SDS011;8701;50.150;8.756;2023-06-10T21:19:33;6.17;;;5.57;;
17171;SDS011;8701;50.150;8.756;2023-06-10T21:23:36;11.37;;;4.43;;
17171;SDS011;8701;50.150;8.756;2023-06-10T21:27:38;5.93;;;5.27;;
17171;SDS011;8701;50.150;8.756;2023-06-10T21:31:40;10.50;;;5.67;;
17171;SDS011;8701;50.150;8.756;2023-06-10T21:35:43;6.20;;;5.37;;
17171;SDS011;8701;50.150;8.756;2023-06-10T21:39:46;5.53;;;5.03;;
17171;SDS011;8701;50.150;8.756;2023-06-10T21:43:48;5.77;;;4.90;;
17171;SDS011;8701;50.150;8.756;2023-06-10T21:47:50;5.97;;;5.10;;
17171;SDS011;8701;50.150;8.756;2023-06-10T21:51:53;7.17;;;5.50;;
17171;SDS011;8701;50.150;8.756;2023-06-10T21:55:56;6.60;;;5.33;;
17171;SDS011;8701;50.150;8.756;2023-06-10T21:59:58;5.57;;;5.10;;
17171;SDS011;8701;50.150;8.756;2023-06-10T22:04:01;8.43;;;5.73;;
17171;SDS011;8701;50.150;8.756;2023-06-10T22:08:03;6.10;;;5.20;;
17171;SDS011;8701;50.150;8.756;2023-06-10T22:12:07;6.37;;;5.77;;
17171;SDS011;8701;50.150;8.756;2023-06-10T22:16:10;5.70;;;5.00;;
17171;SDS011;8701;50.150;8.756;2023-06-10T22:20:12;5.17;;;4.73;;
17171;SDS011;8701;50.150;8.756;2023-06-10T22:24:15;6.00;;;5.40;;
17171;SDS011;8701;50.150;8.756;2023-06-10T22:28:18;5.30;;;4.80;;
17171;SDS011;8701;50.150;8.756;2023-06-10T22:32:21;5.93;;;5.43;;
17171;SDS011;8701;50.150;8.756;2023-06-10T22:36:23;8.53;;;5.00;;
17171;SDS011;8701;50.150;8.756;2023-06-10T22:40:25;5.63;;;5.00;;
17171;SDS011;8701;50.150;8.756;2023-06-10T22:44:29;5.47;;;4.97;;
17171;SDS011;8701;50.150;8.756;2023-06-10T22:48:31;7.10;;;5.50;;
17171;SDS011;8701;50.150;8.756;2023-06-10T22:52:34;5.50;;;5.00;;
17171;SDS011;8701;50.150;8.756;2023-06-10T22:56:36;5.17;;;4.67;;
17171;SDS011;8701;50.150;8.756;2023-06-10T23:00:40;6.17;;;5.57;;
17171;SDS011;8701;50.150;8.756;2023-06-10T23:04:42;5.20;;;4.70;;
17171;SDS011;8701;50.150;8.756;2023-06-10T23:08:44;6.13;;;5.43;;
17171;SDS011;8701;50.150;8.756;2023-06-10T23:12:46;7.70;;;5.40;;
17171;SDS011;8701;50.150;8.756;2023-06-10T23:16:51;5.53;;;5.03;;
17171;SDS011;8701;50.150;8.756;2023-06-10T23:20:54;5.77;;;5.17;;
17171;SDS011;8701;50.150;8.756;2023-06-10T23:24:58;5.37;;;4.87;;
17171;SDS011;8701;50.150;8.756;2023-06-10T23:29:03;5.00;;;4.60;;
17171;SDS011;8701;50.150;8.756;2023-06-10T23:33:07;8.70;;;5.47;;
17171;SDS011;8701;50.150;8.756;2023-06-10T23:37:10;5.70;;;5.10;;
17171;SDS011;8701;50.150;8.756;2023-06-10T23:41:13;6.53;;;5.40;;
17171;SDS011;8701;50.150;8.756;2023-06-10T23:45:15;7.20;;;5.53;;
17171;SDS011;8701;50.150;8.756;2023-06-10T23:49:18;5.93;;;5.27;;
17171;SDS011;8701;50.150;8.756;2023-06-10T23:53:21;5.37;;;4.87;;
17171;SDS011;8701;50.150;8.756;2023-06-10T23:57:23;5.83;;;5.33;;
